CST,Max TemperatureF,Mean TemperatureF,Min TemperatureF,Max Dew PointF,MeanDew PointF,Min DewpointF,Max Humidity, Mean Humidity, Min Humidity, Max Sea Level PressureIn, Mean Sea Level PressureIn, Min Sea Level PressureIn, Max VisibilityMiles, Mean VisibilityMiles, Min VisibilityMiles, Max Wind SpeedMPH, Mean Wind SpeedMPH, Max Gust SpeedMPH,PrecipitationIn, CloudCover, Events, WindDirDegrees
2014-2-1,21,8,-6,11,4,-8,91,74,56,30.39,30.14,29.84,10,8,1,20,8,25,0.00,1,,339
2014-2-2,25,8,-9,13,-1,-14,92,76,60,30.39,30.30,30.19,10,10,9,13,4,17,0.00,2,,272
2014-2-3,24,11,-3,16,8,-8,91,77,62,30.25,30.16,29.98,10,9,5,14,4,15,T,7,,129
2014-2-4,22,12,1,18,2,-6,92,80,68,30.61,30.29,30.07,10,4,0,31,15,40,0.15,8,Snow,26
2014-2-5,7,-4,-15,-5,-10,-18,86,73,60,30.80,30.71,30.46,10,9,2,15,6,18,T,3,Snow,324
2014-2-6,5,-8,-21,-3,-10,-24,87,76,65,30.75,30.57,30.35,10,10,5,13,5,16,T,6,,224
2014-2-7,13,8,2,5,2,-3,88,77,66,30.33,30.13,29.88,10,10,6,15,9,18,T,5,,189
2014-2-8,28,15,1,18,12,-3,91,76,60,30.27,30.11,30.00,10,6,0,13,5,16,0.08,7,Fog-Snow,13
2014-2-9,17,13,9,9,5,1,83,72,61,30.46,30.30,30.16,10,4,0,13,5,18,0.11,8,Fog-Snow,40
2014-2-10,16,13,9,8,6,3,80,77,73,30.46,30.38,30.23,10,10,6,14,7,17,T,8,,170
2014-2-11,27,20,12,22,15,7,96,85,74,30.37,30.16,29.97,10,6,1,13,7,15,0.00,6,,204
2014-2-12,35,24,12,27,21,12,91,79,66,30.23,30.06,29.81,10,10,4,24,8,31,0.00,4,,272
2014-2-13,47,30,13,34,25,12,96,75,53,29.93,29.82,29.70,10,10,6,22,7,26,0.00,1,,282
2014-2-14,47,38,28,31,27,23,89,66,42,30.03,29.94,29.78,10,10,10,23,10,29,0.00,3,,290
2014-2-15,53,39,25,36,28,22,84,60,35,30.13,29.94,29.74,10,10,10,25,9,32,T,4,Rain,303
2014-2-16,56,39,22,35,29,21,96,70,44,30.11,29.86,29.69,10,10,10,23,10,30,T,1,Rain,158
2014-2-17,58,44,30,34,24,19,89,56,23,30.06,29.93,29.79,10,10,10,28,12,39,0.00,2,,291
2014-2-18,60,40,20,29,20,15,81,52,23,30.06,29.86,29.72,10,10,10,35,12,44,0.00,0,,308
2014-2-19,57,38,19,31,21,15,91,57,23,30.00,29.75,29.52,10,10,10,28,10,38,0.00,2,,162
2014-2-20,43,31,18,30,22,12,89,62,34,29.94,29.77,29.62,10,8,1,39,17,51,0.03,4,Rain-Snow,332
2014-2-21,49,32,14,24,17,13,84,55,26,29.91,29.87,29.84,10,10,10,33,10,39,0.00,2,,296
2014-2-22,40,30,19,27,22,17,92,70,48,30.20,30.03,29.92,10,5,1,16,8,20,0.17,5,Snow,53
2014-2-23,24,22,19,21,17,15,91,84,77,30.38,30.27,30.13,10,4,1,17,5,21,0.16,8,Snow,95
2014-2-24,30,20,9,21,14,1,92,79,66,30.51,30.25,30.01,10,10,6,28,12,35,T,6,,153
2014-2-25,16,7,-3,9,3,-5,87,74,61,30.62,30.46,30.31,10,7,1,15,6,20,0.03,5,Snow,344
2014-2-26,30,12,-7,15,1,-11,88,73,57,30.56,30.25,30.10,10,10,2,18,8,22,0.00,2,,273
2014-2-27,26,13,0,16,8,-3,91,76,60,30.13,29.96,29.75,10,10,7,18,9,24,0.00,0,,118
2014-2-28,32,22,11,23,14,6,92,80,67,30.21,29.92,29.70,10,10,4,26,11,33,T,6,Snow,20